Time;durP1;ratioP1;P1;durP2;ratioP2;P2;SDS_P1;SDS_P2;PMS_P1;PMS_P2;Temp;Humidity;BMP_temperature;BMP_pressure;BME280_temperature;BME280_humidity;BME280_pressure;Samples;Min_cycle;Max_cycle;Signal;HPM_P1;HPM_P2
2023/09/15 00:00:41;;;;;;;13.32;10.07;;;11.20;99.90;;;;;;5083243;28;20044;-79
2023/09/15 00:03:07;;;;;;;17.00;10.02;;;11.10;99.90;;;;;;5078279;28;20588;-79
2023/09/15 00:05:37;;;;;;;15.93;10.38;;;11.10;99.90;;;;;;5077072;28;20055;-78
2023/09/15 00:08:04;;;;;;;16.67;9.60;;;11.10;99.90;;;;;;5080852;28;20078;-78
2023/09/15 00:10:37;;;;;;;14.43;9.73;;;11.10;99.90;;;;;;5081782;28;20020;-78
2023/09/15 00:13:02;;;;;;;12.48;9.68;;;11.10;99.90;;;;;;5078956;28;20107;-77
2023/09/15 00:15:28;;;;;;;14.73;9.63;;;11.10;99.90;;;;;;5079208;28;20083;-79
2023/09/15 00:17:55;;;;;;;16.95;9.90;;;11.10;99.90;;;;;;5080274;28;20059;-78
2023/09/15 00:20:21;;;;;;;16.20;10.32;;;11.10;99.90;;;;;;5078633;28;20024;-77
2023/09/15 00:22:49;;;;;;;16.27;11.13;;;11.00;99.90;;;;;;5080780;28;20142;-80
2023/09/15 00:25:22;;;;;;;14.02;11.13;;;11.00;99.90;;;;;;5082480;28;20020;-80
2023/09/15 00:28:01;;;;;;;15.30;10.73;;;11.00;99.90;;;;;;5078254;28;20032;-77
2023/09/15 00:30:27;;;;;;;17.40;10.80;;;10.90;99.90;;;;;;5080783;28;20040;-81
2023/09/15 00:32:54;;;;;;;15.38;10.18;;;11.00;99.90;;;;;;5081177;28;20029;-78
2023/09/15 00:35:22;;;;;;;17.50;10.60;;;10.80;99.90;;;;;;5081183;28;20070;-78
2023/09/15 00:37:49;;;;;;;17.15;10.57;;;10.90;99.90;;;;;;5081183;28;20127;-79
2023/09/15 00:40:20;;;;;;;17.67;10.85;;;10.80;99.90;;;;;;5080632;28;20078;-80
2023/09/15 00:42:47;;;;;;;15.45;11.07;;;10.80;99.90;;;;;;5080597;28;20040;-79
2023/09/15 00:45:19;;;;;;;14.45;10.57;;;10.90;99.90;;;;;;5081366;28;20044;-80
2023/09/15 00:47:49;;;;;;;15.50;10.60;;;10.80;99.90;;;;;;5080485;28;20020;-78
2023/09/15 00:50:17;;;;;;;16.75;10.00;;;10.80;99.90;;;;;;5082243;28;20058;-79
2023/09/15 00:52:49;;;;;;;15.35;10.23;;;10.80;99.90;;;;;;5081954;28;20443;-78
2023/09/15 00:55:17;;;;;;;17.58;9.85;;;10.80;99.90;;;;;;5081648;28;20043;-77
2023/09/15 00:57:45;;;;;;;13.57;10.05;;;10.70;99.90;;;;;;5082209;28;20041;-80
2023/09/15 01:00:12;;;;;;;15.18;9.70;;;10.70;99.90;;;;;;5081120;28;20032;-79
2023/09/15 01:02:39;;;;;;;15.38;10.15;;;10.70;99.90;;;;;;5079465;28;20729;-81
2023/09/15 01:05:05;;;;;;;16.05;10.10;;;10.70;99.90;;;;;;5080557;28;20409;-78
2023/09/15 01:07:32;;;;;;;15.10;10.48;;;10.70;99.90;;;;;;5080314;28;20025;-80
2023/09/15 01:09:58;;;;;;;15.88;10.07;;;10.70;99.90;;;;;;5079910;28;20029;-81
2023/09/15 01:12:24;;;;;;;15.77;10.35;;;10.80;99.90;;;;;;5080259;28;20064;-81
2023/09/15 01:14:49;;;;;;;13.48;9.52;;;10.60;99.90;;;;;;5074422;28;20039;-82
2023/09/15 01:17:22;;;;;;;18.73;10.55;;;10.60;99.90;;;;;;5079303;28;20044;-79
2023/09/15 01:20:23;;;;;;;14.00;10.05;;;10.60;99.90;;;;;;5079784;28;20036;-80
2023/09/15 01:22:51;;;;;;;14.88;9.48;;;10.60;99.90;;;;;;5062721;28;20041;-80
2023/09/15 01:25:29;;;;;;;14.40;9.00;;;10.60;99.90;;;;;;5079737;28;20046;-80
2023/09/15 01:28:11;;;;;;;15.27;9.00;;;10.60;99.90;;;;;;5079943;28;20039;-81
2023/09/15 01:30:38;;;;;;;16.50;9.85;;;10.50;99.90;;;;;;5079746;28;20032;-83
2023/09/15 01:33:05;;;;;;;14.68;9.82;;;10.60;99.90;;;;;;5078733;28;20035;-80
2023/09/15 01:35:32;;;;;;;15.77;9.73;;;10.50;99.90;;;;;;5080263;28;20053;-81
2023/09/15 01:38:00;;;;;;;15.43;9.88;;;10.50;99.90;;;;;;5080800;28;20505;-81
2023/09/15 01:40:26;;;;;;;14.23;9.80;;;10.40;99.90;;;;;;5080363;28;20803;-82
2023/09/15 01:42:54;;;;;;;16.02;10.63;;;10.50;99.90;;;;;;5079450;28;20044;-79
2023/09/15 01:45:20;;;;;;;14.93;10.07;;;10.40;99.90;;;;;;5078434;28;20017;-79
2023/09/15 01:47:47;;;;;;;14.90;9.95;;;10.40;99.90;;;;;;5080263;28;20092;-80
2023/09/15 01:50:15;;;;;;;15.02;10.55;;;10.40;99.90;;;;;;5079605;28;20089;-83
2023/09/15 01:52:42;;;;;;;16.65;10.57;;;10.30;99.90;;;;;;5079822;28;20471;-79
2023/09/15 01:55:09;;;;;;;13.27;8.70;;;10.30;99.90;;;;;;5081537;28;20207;-83
2023/09/15 01:57:35;;;;;;;15.30;10.05;;;10.30;99.90;;;;;;5079702;28;20029;-80
2023/09/15 02:00:01;;;;;;;14.10;9.98;;;10.30;99.90;;;;;;5079720;28;20024;-79
2023/09/15 02:02:26;;;;;;;16.25;9.60;;;10.30;99.90;;;;;;5080309;28;20517;-81
2023/09/15 02:04:53;;;;;;;13.52;9.57;;;10.30;99.90;;;;;;5078955;28;20104;-80
2023/09/15 02:07:19;;;;;;;15.52;9.70;;;10.30;99.90;;;;;;5079392;28;20032;-82
2023/09/15 02:09:44;;;;;;;13.88;8.90;;;10.20;99.90;;;;;;5081179;28;20109;-79
2023/09/15 02:12:10;;;;;;;15.15;9.40;;;10.30;99.90;;;;;;5078613;28;20038;-78
2023/09/15 02:14:36;;;;;;;18.40;9.55;;;10.30;99.90;;;;;;5079640;28;20021;-82
2023/09/15 02:17:02;;;;;;;12.45;8.50;;;10.20;99.90;;;;;;5079371;28;20036;-81
2023/09/15 02:19:29;;;;;;;13.95;8.90;;;10.20;99.90;;;;;;5079993;28;20054;-81
2023/09/15 02:21:54;;;;;;;12.32;8.52;;;10.30;99.90;;;;;;5080878;28;20013;-79
2023/09/15 02:24:20;;;;;;;12.82;8.73;;;10.20;99.90;;;;;;5079477;28;20036;-78
2023/09/15 02:26:45;;;;;;;11.63;8.20;;;10.20;99.90;;;;;;5079735;28;20050;-77
2023/09/15 02:29:11;;;;;;;17.90;9.40;;;10.30;99.90;;;;;;5082116;28;20028;-79
2023/09/15 02:31:38;;;;;;;16.63;9.50;;;10.20;99.90;;;;;;5083284;28;20016;-79
2023/09/15 02:34:04;;;;;;;15.23;9.82;;;10.20;99.90;;;;;;5083535;28;20458;-78
2023/09/15 02:36:29;;;;;;;15.30;10.20;;;10.20;99.90;;;;;;5083056;28;20045;-79
2023/09/15 02:38:55;;;;;;;17.35;10.13;;;10.10;99.90;;;;;;5083185;28;20021;-78
2023/09/15 02:41:25;;;;;;;14.52;9.68;;;10.10;99.90;;;;;;5083066;28;20469;-80
2023/09/15 02:43:53;;;;;;;14.52;8.52;;;10.10;99.90;;;;;;5083240;28;20060;-82
2023/09/15 02:46:19;;;;;;;18.33;9.65;;;10.10;99.90;;;;;;5084070;28;20040;-81
2023/09/15 02:48:45;;;;;;;16.17;9.60;;;10.10;99.90;;;;;;5083097;28;20020;-79
2023/09/15 02:51:10;;;;;;;17.30;9.18;;;10.10;99.90;;;;;;5083218;28;20120;-78
2023/09/15 02:53:36;;;;;;;13.77;8.48;;;10.00;99.90;;;;;;5083073;28;20496;-80
2023/09/15 02:56:05;;;;;;;12.70;8.10;;;10.00;99.90;;;;;;5082232;28;20515;-82
2023/09/15 02:58:32;;;;;;;13.45;8.60;;;10.00;99.90;;;;;;5084256;28;20018;-79
2023/09/15 03:00:57;;;;;;;16.55;7.53;;;10.10;99.90;;;;;;5083545;28;20020;-80
2023/09/15 03:03:23;;;;;;;12.50;7.53;;;10.00;99.90;;;;;;5082594;28;20059;-79
2023/09/15 03:05:49;;;;;;;10.50;6.72;;;10.00;99.90;;;;;;5082633;28;20081;-83
2023/09/15 03:08:15;;;;;;;11.13;6.68;;;10.00;99.90;;;;;;5083073;28;20050;-80
2023/09/15 03:10:41;;;;;;;13.43;6.80;;;10.00;99.90;;;;;;5082796;28;20044;-79
2023/09/15 03:13:06;;;;;;;11.48;7.47;;;10.00;99.90;;;;;;5082539;28;20058;-80
2023/09/15 03:15:33;;;;;;;13.02;7.63;;;10.10;99.90;;;;;;5082351;28;20111;-80
2023/09/15 03:17:58;;;;;;;11.05;7.22;;;10.00;99.90;;;;;;5084497;28;20029;-81
2023/09/15 03:20:24;;;;;;;12.95;7.43;;;10.00;99.90;;;;;;5083947;28;20067;-82
2023/09/15 03:22:51;;;;;;;13.70;7.63;;;10.00;99.90;;;;;;5083036;28;20060;-79
2023/09/15 03:25:17;;;;;;;14.45;8.05;;;10.00;99.90;;;;;;5081576;28;20024;-78
2023/09/15 03:27:43;;;;;;;16.33;8.35;;;10.00;99.90;;;;;;5081452;28;20123;-78
2023/09/15 03:30:09;;;;;;;14.88;8.25;;;10.10;99.90;;;;;;5081545;28;20063;-79
2023/09/15 03:32:35;;;;;;;18.13;8.05;;;9.90;99.90;;;;;;5080737;28;20035;-82
2023/09/15 03:35:05;;;;;;;12.30;8.10;;;9.90;99.90;;;;;;5083899;28;20053;-81
2023/09/15 03:37:32;;;;;;;13.18;8.23;;;9.90;99.90;;;;;;5082354;28;20037;-78
2023/09/15 03:39:58;;;;;;;12.27;7.72;;;9.90;99.90;;;;;;5082423;28;20052;-81
2023/09/15 03:42:24;;;;;;;11.73;7.70;;;9.90;99.90;;;;;;5081016;28;20031;-79
2023/09/15 03:44:49;;;;;;;12.40;7.40;;;9.90;99.90;;;;;;5082220;28;20031;-81
2023/09/15 03:47:15;;;;;;;13.45;7.40;;;9.90;99.90;;;;;;5081963;28;20066;-81
2023/09/15 03:49:41;;;;;;;11.60;7.25;;;9.90;99.90;;;;;;5080952;28;20027;-81
2023/09/15 03:52:06;;;;;;;11.60;6.60;;;9.90;99.90;;;;;;5082436;28;20067;-80
2023/09/15 03:54:32;;;;;;;11.35;6.43;;;9.80;99.90;;;;;;5082926;28;20031;-80
2023/09/15 03:56:57;;;;;;;10.30;6.82;;;9.80;99.90;;;;;;5082114;28;20032;-79
2023/09/15 03:59:23;;;;;;;14.55;6.80;;;9.70;99.90;;;;;;5082347;28;20035;-78
2023/09/15 04:01:50;;;;;;;11.25;6.47;;;9.70;99.90;;;;;;5080832;28;20028;-80
2023/09/15 04:04:15;;;;;;;13.57;6.90;;;9.80;99.90;;;;;;5082588;28;20059;-80
2023/09/15 04:06:41;;;;;;;11.30;6.25;;;9.80;99.90;;;;;;5083134;28;20028;-78
2023/09/15 04:09:12;;;;;;;13.95;6.60;;;9.80;99.90;;;;;;5082078;28;20032;-77
2023/09/15 04:11:39;;;;;;;12.40;6.05;;;9.70;99.90;;;;;;5078467;28;20020;-78
2023/09/15 04:14:05;;;;;;;9.65;5.88;;;9.70;99.90;;;;;;5080298;28;20162;-78
2023/09/15 04:16:31;;;;;;;15.25;6.10;;;9.70;99.90;;;;;;5076351;28;20063;-79
2023/09/15 04:18:57;;;;;;;11.00;6.07;;;9.70;99.90;;;;;;5078572;28;20017;-79
2023/09/15 04:21:23;;;;;;;13.32;5.70;;;9.70;99.90;;;;;;5080466;28;20056;-78
2023/09/15 04:23:48;;;;;;;9.75;5.95;;;9.70;99.90;;;;;;5079368;28;20034;-79
2023/09/15 04:26:14;;;;;;;10.48;6.03;;;9.70;99.90;;;;;;5080444;28;20036;-78
2023/09/15 04:28:40;;;;;;;14.40;5.60;;;9.70;99.90;;;;;;5081207;28;20029;-80
2023/09/15 04:31:05;;;;;;;11.80;5.68;;;9.70;99.90;;;;;;5080908;28;20025;-79
2023/09/15 04:33:31;;;;;;;9.52;5.45;;;9.70;99.90;;;;;;5080624;28;20028;-78
2023/09/15 04:35:56;;;;;;;10.15;5.57;;;9.60;99.90;;;;;;5079716;28;20533;-79
2023/09/15 04:38:23;;;;;;;10.75;5.57;;;9.80;99.90;;;;;;5080423;28;20382;-79
2023/09/15 04:40:48;;;;;;;8.32;5.07;;;9.70;99.90;;;;;;5081511;28;20024;-80
2023/09/15 04:43:16;;;;;;;9.85;5.70;;;9.70;99.90;;;;;;5080937;28;20028;-77
2023/09/15 04:45:43;;;;;;;9.25;5.38;;;9.70;99.90;;;;;;5077937;28;20036;-79
2023/09/15 04:48:08;;;;;;;12.30;5.40;;;9.70;99.90;;;;;;5078359;28;20036;-78
2023/09/15 04:50:37;;;;;;;8.90;5.10;;;9.70;99.90;;;;;;5077840;28;20032;-77
2023/09/15 04:53:04;;;;;;;10.90;5.53;;;9.70;99.90;;;;;;5078588;28;20024;-76
2023/09/15 04:55:31;;;;;;;13.85;5.15;;;9.60;99.90;;;;;;5080757;28;20023;-76
2023/09/15 04:57:56;;;;;;;10.20;5.85;;;9.70;99.90;;;;;;5081123;28;20032;-76
2023/09/15 05:00:25;;;;;;;12.68;5.70;;;9.70;99.90;;;;;;5080294;28;20032;-76
2023/09/15 05:02:50;;;;;;;14.27;5.90;;;9.70;99.90;;;;;;5080857;28;20146;-74
2023/09/15 05:05:16;;;;;;;12.57;5.18;;;9.60;99.90;;;;;;5079869;28;20016;-75
2023/09/15 05:07:42;;;;;;;12.23;5.70;;;9.60;99.90;;;;;;5081159;28;20028;-74
2023/09/15 05:10:08;;;;;;;11.70;5.80;;;9.60;99.90;;;;;;5082513;28;20033;-74
2023/09/15 05:12:34;;;;;;;11.13;5.72;;;9.60;99.90;;;;;;5081814;28;20031;-74
2023/09/15 05:15:00;;;;;;;8.70;5.28;;;9.70;99.90;;;;;;5081259;28;20028;-75
2023/09/15 05:17:26;;;;;;;9.20;5.32;;;9.60;99.90;;;;;;5077923;28;21001;-74
2023/09/15 05:19:53;;;;;;;12.13;5.55;;;9.60;99.90;;;;;;5079974;28;20025;-75
2023/09/15 05:22:19;;;;;;;9.35;5.47;;;9.60;99.90;;;;;;5079518;28;20051;-74
2023/09/15 05:24:45;;;;;;;12.00;6.07;;;9.70;99.90;;;;;;5078676;28;20541;-75
2023/09/15 05:27:10;;;;;;;12.98;5.88;;;9.70;99.90;;;;;;5077248;28;20107;-76
2023/09/15 05:29:36;;;;;;;11.63;5.93;;;9.70;99.90;;;;;;5080242;28;20028;-74
2023/09/15 05:32:01;;;;;;;9.40;5.60;;;9.70;99.90;;;;;;5080074;28;20025;-74
2023/09/15 05:34:27;;;;;;;10.00;5.97;;;9.70;99.90;;;;;;5079052;28;20059;-75
2023/09/15 05:36:53;;;;;;;12.52;5.93;;;9.70;99.90;;;;;;5077700;28;20043;-75
2023/09/15 05:39:19;;;;;;;9.60;6.07;;;9.70;99.90;;;;;;5078797;28;20027;-74
2023/09/15 05:41:45;;;;;;;14.85;5.93;;;9.80;99.90;;;;;;5079677;28;20052;-73
2023/09/15 05:44:10;;;;;;;11.48;5.75;;;9.70;99.90;;;;;;5078545;28;20501;-74
2023/09/15 05:46:36;;;;;;;10.68;5.63;;;9.80;99.90;;;;;;5076299;28;20017;-75
2023/09/15 05:49:02;;;;;;;20.40;5.80;;;9.90;99.90;;;;;;5074865;28;20021;-73
2023/09/15 05:51:28;;;;;;;12.43;5.55;;;10.00;99.90;;;;;;5079683;28;20025;-75
2023/09/15 05:53:54;;;;;;;11.02;6.18;;;10.00;99.90;;;;;;5077517;28;20032;-74
2023/09/15 05:56:19;;;;;;;13.15;5.63;;;10.00;99.90;;;;;;5078409;28;20033;-74
2023/09/15 05:58:45;;;;;;;8.38;5.47;;;10.00;99.90;;;;;;5081446;28;20048;-74
2023/09/15 06:01:11;;;;;;;12.98;5.93;;;10.00;99.90;;;;;;5078401;28;20024;-74
2023/09/15 06:03:37;;;;;;;10.90;6.35;;;9.90;99.90;;;;;;5078886;28;20043;-74
2023/09/15 06:06:03;;;;;;;14.00;6.38;;;10.10;99.90;;;;;;5084299;28;20025;-74
2023/09/15 06:08:29;;;;;;;12.27;5.55;;;10.10;99.90;;;;;;5083170;28;20066;-74
2023/09/15 06:10:54;;;;;;;10.80;5.13;;;10.20;99.90;;;;;;5084962;28;21479;-73
2023/09/15 06:13:20;;;;;;;10.07;5.28;;;10.10;99.90;;;;;;5082506;28;20465;-74
2023/09/15 06:15:46;;;;;;;9.15;5.35;;;10.20;99.90;;;;;;5084027;28;20048;-75
2023/09/15 06:18:11;;;;;;;11.15;5.43;;;10.10;99.90;;;;;;5081397;28;20032;-74
2023/09/15 06:20:38;;;;;;;11.20;5.57;;;10.30;99.90;;;;;;5083750;28;20025;-74
2023/09/15 06:23:04;;;;;;;9.13;5.10;;;10.30;99.90;;;;;;5085064;28;20089;-74
2023/09/15 06:25:33;;;;;;;9.35;5.40;;;10.30;99.90;;;;;;5084241;28;20017;-75
2023/09/15 06:28:00;;;;;;;12.18;5.50;;;10.40;99.90;;;;;;5082519;28;20103;-74
2023/09/15 06:30:27;;;;;;;10.20;5.57;;;10.40;99.90;;;;;;5083004;28;20016;-74
2023/09/15 06:32:55;;;;;;;8.73;5.00;;;10.50;99.90;;;;;;5082654;28;20047;-74
2023/09/15 06:35:22;;;;;;;10.25;5.75;;;10.50;99.90;;;;;;5084082;28;20040;-74
2023/09/15 06:37:47;;;;;;;14.73;5.20;;;10.60;99.90;;;;;;5082072;28;20501;-73
2023/09/15 06:40:13;;;;;;;9.30;4.90;;;10.60;99.90;;;;;;5083226;28;20035;-74
2023/09/15 06:42:39;;;;;;;9.55;4.88;;;10.70;99.90;;;;;;5081628;28;20041;-74
2023/09/15 06:45:05;;;;;;;9.40;4.68;;;10.70;99.90;;;;;;5083076;28;20036;-73
2023/09/15 06:47:31;;;;;;;9.63;4.90;;;10.80;99.90;;;;;;5080422;28;20020;-74
2023/09/15 06:49:57;;;;;;;9.07;5.07;;;10.90;99.90;;;;;;5081211;28;20025;-74
2023/09/15 06:52:22;;;;;;;12.30;5.15;;;10.90;99.90;;;;;;5078497;28;20033;-74
2023/09/15 06:54:48;;;;;;;11.25;4.82;;;11.00;99.90;;;;;;5082524;28;20036;-75
2023/09/15 06:57:14;;;;;;;9.35;5.07;;;11.00;99.90;;;;;;5077521;28;20029;-73
2023/09/15 06:59:39;;;;;;;10.23;5.13;;;11.10;99.90;;;;;;5080847;28;20112;-73
2023/09/15 07:02:05;;;;;;;11.23;5.15;;;11.10;99.90;;;;;;5080060;28;20028;-75
2023/09/15 07:04:31;;;;;;;8.35;5.32;;;11.20;99.90;;;;;;5076858;28;20477;-74
2023/09/15 07:06:57;;;;;;;10.00;4.65;;;11.20;99.90;;;;;;5083388;28;20035;-73
2023/09/15 07:09:24;;;;;;;10.45;4.80;;;11.30;99.90;;;;;;5084186;28;20043;-75
2023/09/15 07:11:49;;;;;;;10.13;4.90;;;11.40;99.90;;;;;;5083275;28;20036;-74
2023/09/15 07:14:15;;;;;;;10.45;4.80;;;11.40;99.90;;;;;;5076278;28;20029;-75
2023/09/15 07:16:41;;;;;;;12.13;4.68;;;11.60;99.90;;;;;;5078982;28;20036;-74
2023/09/15 07:19:06;;;;;;;14.38;4.60;;;11.70;99.90;;;;;;5078787;28;20084;-74
2023/09/15 07:21:32;;;;;;;9.18;4.80;;;11.80;99.90;;;;;;5081351;28;20107;-74
2023/09/15 07:23:59;;;;;;;8.52;4.32;;;11.90;99.90;;;;;;5078380;28;20025;-75
2023/09/15 07:26:26;;;;;;;7.53;5.10;;;12.00;99.90;;;;;;5081246;28;20035;-78
2023/09/15 07:28:55;;;;;;;8.00;4.55;;;11.90;99.90;;;;;;5080971;28;20021;-75
2023/09/15 07:31:23;;;;;;;7.80;4.30;;;12.10;99.90;;;;;;5080564;28;20029;-75
2023/09/15 07:33:49;;;;;;;8.52;4.43;;;12.20;99.90;;;;;;5081737;28;20036;-74
2023/09/15 07:36:14;;;;;;;6.82;4.28;;;12.30;99.90;;;;;;5081805;28;20056;-74
2023/09/15 07:38:40;;;;;;;9.93;4.80;;;12.30;99.90;;;;;;5084026;28;20100;-75
2023/09/15 07:41:06;;;;;;;11.98;4.60;;;12.50;99.90;;;;;;5082084;28;20083;-76
2023/09/15 07:43:31;;;;;;;11.32;4.68;;;12.40;99.90;;;;;;5082617;28;20044;-76
2023/09/15 07:45:57;;;;;;;9.50;4.47;;;12.60;99.90;;;;;;5081851;28;20078;-75
2023/09/15 07:48:23;;;;;;;8.13;4.90;;;12.70;99.90;;;;;;5083692;28;20016;-73
2023/09/15 07:50:50;;;;;;;8.65;4.95;;;12.70;99.90;;;;;;5083517;28;20032;-73
2023/09/15 07:53:16;;;;;;;7.63;4.40;;;12.90;99.90;;;;;;5081939;28;20025;-74
2023/09/15 07:55:41;;;;;;;10.32;4.40;;;13.00;99.90;;;;;;5083492;28;20025;-75
2023/09/15 07:58:07;;;;;;;6.88;4.13;;;13.20;99.90;;;;;;5082865;28;20043;-75
2023/09/15 08:00:33;;;;;;;8.95;4.55;;;13.40;99.90;;;;;;5081672;28;20024;-74
2023/09/15 08:02:59;;;;;;;7.63;4.35;;;13.60;99.90;;;;;;5081228;28;20025;-74
2023/09/15 08:05:24;;;;;;;6.97;4.25;;;13.70;99.90;;;;;;5081945;28;20025;-73
2023/09/15 08:07:50;;;;;;;6.43;3.80;;;13.90;99.90;;;;;;5080777;28;20037;-75
2023/09/15 08:10:18;;;;;;;6.65;3.67;;;14.00;99.90;;;;;;5080788;28;20020;-76
2023/09/15 08:12:44;;;;;;;7.00;4.40;;;14.10;99.90;;;;;;5080871;28;20017;-74
2023/09/15 08:15:10;;;;;;;7.05;4.10;;;14.20;99.90;;;;;;5082947;28;20031;-73
2023/09/15 08:17:36;;;;;;;6.93;3.85;;;14.30;99.90;;;;;;5081282;28;20044;-74
2023/09/15 08:20:03;;;;;;;7.78;3.85;;;14.50;99.90;;;;;;5075106;28;20040;-74
2023/09/15 08:22:30;;;;;;;7.38;3.95;;;14.60;99.90;;;;;;5080023;28;20067;-78
2023/09/15 08:24:55;;;;;;;9.05;3.90;;;14.70;99.90;;;;;;5080701;28;20017;-74
2023/09/15 08:27:21;;;;;;;6.53;3.72;;;14.90;99.90;;;;;;5077070;28;20020;-74
2023/09/15 08:29:47;;;;;;;12.43;4.80;;;15.00;99.90;;;;;;5078028;28;20025;-75
2023/09/15 08:32:14;;;;;;;9.18;3.80;;;15.00;99.90;;;;;;5078343;28;20044;-76
2023/09/15 08:34:41;;;;;;;8.73;3.80;;;15.10;99.90;;;;;;5081094;28;20064;-74
2023/09/15 08:37:06;;;;;;;6.35;3.85;;;15.10;99.90;;;;;;5082213;28;20436;-75
2023/09/15 08:39:32;;;;;;;7.75;4.10;;;15.20;99.90;;;;;;5079452;28;20453;-75
2023/09/15 08:42:03;;;;;;;10.43;3.78;;;15.40;99.90;;;;;;5078508;28;20039;-74
2023/09/15 08:44:32;;;;;;;7.65;4.50;;;15.40;99.90;;;;;;5081068;28;20080;-75
2023/09/15 08:47:00;;;;;;;9.60;3.95;;;15.50;99.90;;;;;;5082435;28;20028;-77
2023/09/15 08:49:28;;;;;;;7.07;3.95;;;15.60;99.90;;;;;;5081280;28;20080;-79
2023/09/15 08:51:58;;;;;;;7.72;4.25;;;15.70;99.90;;;;;;5081245;28;20071;-75
2023/09/15 08:54:24;;;;;;;10.85;4.22;;;15.70;99.90;;;;;;5078406;28;20036;-77
2023/09/15 08:56:50;;;;;;;8.40;4.25;;;15.80;99.90;;;;;;5079734;28;20114;-75
2023/09/15 08:59:16;;;;;;;7.38;4.43;;;15.90;99.90;;;;;;5079411;28;20678;-73
2023/09/15 09:01:42;;;;;;;8.65;4.18;;;16.00;99.90;;;;;;5080225;28;20032;-74
2023/09/15 09:04:10;;;;;;;10.63;4.72;;;16.10;99.90;;;;;;5078771;28;20562;-76
2023/09/15 09:06:36;;;;;;;7.68;4.22;;;16.20;99.90;;;;;;5079793;28;20024;-75
2023/09/15 09:09:04;;;;;;;8.18;4.50;;;16.30;99.90;;;;;;5079045;28;20060;-75
2023/09/15 09:11:30;;;;;;;8.48;4.60;;;16.40;99.90;;;;;;5078636;28;20032;-73
2023/09/15 09:13:56;;;;;;;8.80;4.72;;;16.50;99.90;;;;;;5079407;28;20060;-76
2023/09/15 09:16:22;;;;;;;10.50;4.47;;;16.60;99.90;;;;;;5076295;28;20150;-76
2023/09/15 09:18:56;;;;;;;11.13;4.65;;;16.70;99.90;;;;;;5077338;28;20045;-75
2023/09/15 09:21:26;;;;;;;10.18;4.88;;;16.80;99.90;;;;;;5082088;28;20024;-75
2023/09/15 09:23:52;;;;;;;12.60;5.47;;;16.90;99.90;;;;;;5080401;28;20663;-77
2023/09/15 09:26:18;;;;;;;10.98;5.88;;;17.00;99.90;;;;;;5079478;28;20064;-76
2023/09/15 09:28:44;;;;;;;12.98;5.30;;;17.10;99.90;;;;;;5081477;28;20025;-76
2023/09/15 09:31:10;;;;;;;11.95;5.97;;;17.20;99.90;;;;;;5081799;28;20020;-76
2023/09/15 09:33:38;;;;;;;9.35;5.05;;;17.30;99.90;;;;;;5077899;28;20024;-75
2023/09/15 09:36:14;;;;;;;11.63;4.75;;;17.40;99.90;;;;;;5077146;28;20052;-77
2023/09/15 09:38:41;;;;;;;10.75;5.20;;;17.60;99.90;;;;;;5078299;28;20043;-74
2023/09/15 09:41:10;;;;;;;10.95;5.45;;;17.80;99.90;;;;;;5075185;28;20033;-73
2023/09/15 09:43:37;;;;;;;11.48;5.65;;;17.90;99.90;;;;;;5080873;28;20030;-74
2023/09/15 09:46:04;;;;;;;10.63;4.90;;;18.10;99.90;;;;;;5077187;28;20481;-77
2023/09/15 09:48:29;;;;;;;10.68;4.88;;;18.20;99.90;;;;;;5078698;28;20435;-75
2023/09/15 09:50:56;;;;;;;12.13;4.95;;;18.20;99.90;;;;;;5077920;28;20024;-74
2023/09/15 09:53:29;;;;;;;8.65;5.00;;;18.30;99.90;;;;;;5079477;28;20032;-75
2023/09/15 09:56:04;;;;;;;9.88;5.25;;;18.40;99.90;;;;;;5080225;28;20079;-74
2023/09/15 09:58:32;;;;;;;13.43;5.75;;;18.40;99.90;;;;;;5078923;28;20028;-75
2023/09/15 10:00:59;;;;;;;12.70;5.93;;;18.50;99.90;;;;;;5079350;28;20036;-74
2023/09/15 10:03:25;;;;;;;9.52;5.43;;;18.50;99.90;;;;;;5078423;28;20029;-75
2023/09/15 10:05:57;;;;;;;10.75;5.70;;;18.60;99.90;;;;;;5080205;28;20058;-75
2023/09/15 10:08:22;;;;;;;10.55;5.43;;;18.70;99.90;;;;;;5077127;28;20074;-76
2023/09/15 10:10:50;;;;;;;13.10;6.03;;;18.80;99.90;;;;;;5078088;28;20024;-76
2023/09/15 10:13:16;;;;;;;10.90;5.75;;;18.90;99.90;;;;;;5078453;28;20029;-75
2023/09/15 10:15:43;;;;;;;9.52;5.63;;;19.00;99.90;;;;;;5076172;28;20032;-77
2023/09/15 10:18:12;;;;;;;15.95;5.70;;;19.10;99.90;;;;;;5076461;28;20108;-75
2023/09/15 10:20:40;;;;;;;10.02;4.80;;;19.20;99.90;;;;;;5077961;28;20035;-74
2023/09/15 10:23:07;;;;;;;8.25;5.32;;;19.30;99.90;;;;;;5078133;28;20025;-74
2023/09/15 10:25:54;;;;;;;9.93;5.00;;;19.30;99.90;;;;;;5077410;28;20036;-76
2023/09/15 10:28:22;;;;;;;8.63;5.28;;;19.30;99.90;;;;;;5079041;28;20044;-74
2023/09/15 10:30:55;;;;;;;13.65;4.72;;;19.40;99.90;;;;;;5080244;28;20021;-77
2023/09/15 10:33:28;;;;;;;9.20;5.53;;;19.50;99.90;;;;;;5077826;28;20036;-75
2023/09/15 10:36:02;;;;;;;9.88;5.65;;;19.50;99.90;;;;;;5080123;28;20127;-76
2023/09/15 10:38:29;;;;;;;8.80;5.90;;;19.60;99.90;;;;;;5077822;28;20028;-76
2023/09/15 10:40:58;;;;;;;8.48;5.50;;;19.70;99.90;;;;;;5077578;28;20075;-76
2023/09/15 10:43:23;;;;;;;9.00;4.90;;;19.80;99.90;;;;;;5078511;28;20033;-78
2023/09/15 10:45:57;;;;;;;15.07;5.88;;;19.90;99.90;;;;;;5076618;28;20035;-76
2023/09/15 10:48:46;;;;;;;9.57;5.47;;;19.90;99.90;;;;;;5076708;28;20040;-77
2023/09/15 10:51:12;;;;;;;11.18;4.65;;;20.00;99.90;;;;;;5081750;28;20028;-78
2023/09/15 10:53:56;;;;;;;14.23;5.53;;;20.10;99.90;;;;;;5082683;28;20119;-79
2023/09/15 10:56:22;;;;;;;9.40;5.20;;;20.30;99.90;;;;;;5081413;28;20120;-76
2023/09/15 10:58:48;;;;;;;8.38;4.88;;;20.40;99.90;;;;;;5082749;28;20051;-75
2023/09/15 11:01:18;;;;;;;9.23;4.63;;;20.60;99.90;;;;;;5081866;28;20097;-73
2023/09/15 11:03:44;;;;;;;10.57;5.05;;;20.70;99.90;;;;;;5078612;28;20040;-77
2023/09/15 11:06:14;;;;;;;7.82;4.55;;;20.80;99.90;;;;;;5081682;28;20032;-75
2023/09/15 11:08:40;;;;;;;8.40;4.10;;;20.90;99.90;;;;;;5081880;28;20021;-78
2023/09/15 11:11:10;;;;;;;9.75;4.85;;;20.90;99.90;;;;;;5082296;28;20087;-72
2023/09/15 11:13:37;;;;;;;9.70;5.00;;;21.00;99.90;;;;;;5083177;28;20027;-79
2023/09/15 11:16:03;;;;;;;7.20;4.30;;;21.10;99.90;;;;;;5083112;28;20032;-76
2023/09/15 11:18:33;;;;;;;6.53;4.10;;;21.20;99.90;;;;;;5082345;28;20040;-79
2023/09/15 11:20:59;;;;;;;7.00;4.00;;;21.20;99.90;;;;;;5083375;28;20016;-78
2023/09/15 11:23:24;;;;;;;7.45;4.30;;;21.30;99.90;;;;;;5082875;28;20043;-72
2023/09/15 11:26:04;;;;;;;6.88;4.20;;;21.40;99.90;;;;;;5082929;28;20044;-79
2023/09/15 11:28:36;;;;;;;13.43;4.60;;;21.50;99.90;;;;;;5081467;28;20096;-73
2023/09/15 11:31:06;;;;;;;9.02;4.20;;;21.60;99.90;;;;;;5080889;28;20035;-77
2023/09/15 11:33:32;;;;;;;8.35;3.63;;;21.70;99.90;;;;;;5081358;28;20025;-73
2023/09/15 11:35:59;;;;;;;7.15;3.65;;;21.60;99.90;;;;;;5082479;28;20513;-75
2023/09/15 11:38:26;;;;;;;10.48;4.53;;;21.60;99.90;;;;;;5082595;28;20029;-77
2023/09/15 11:40:52;;;;;;;9.30;4.47;;;21.60;99.90;;;;;;5081588;28;20459;-76
2023/09/15 11:43:22;;;;;;;10.13;4.68;;;21.70;99.90;;;;;;5083337;28;20013;-77
2023/09/15 11:45:50;;;;;;;6.00;4.00;;;21.70;99.90;;;;;;5081259;28;20051;-76
2023/09/15 11:48:16;;;;;;;8.05;4.82;;;21.90;99.90;;;;;;5080394;28;20031;-74
2023/09/15 11:50:43;;;;;;;7.78;3.80;;;22.00;99.90;;;;;;5081910;28;20048;-75
2023/09/15 11:53:08;;;;;;;8.02;4.63;;;22.20;99.90;;;;;;5081510;28;20020;-74
2023/09/15 11:55:35;;;;;;;8.05;3.67;;;22.20;99.90;;;;;;5083800;28;20104;-79
2023/09/15 11:58:00;;;;;;;7.30;3.97;;;22.20;99.90;;;;;;5081529;28;20035;-77
2023/09/15 12:00:30;;;;;;;6.20;3.70;;;22.20;99.90;;;;;;5080897;28;20028;-77
2023/09/15 12:02:57;;;;;;;7.95;3.70;;;22.20;99.90;;;;;;5081852;28;20032;-76
2023/09/15 12:05:24;;;;;;;8.95;4.40;;;22.20;99.90;;;;;;5082301;28;20463;-76
2023/09/15 12:07:50;;;;;;;9.02;4.32;;;22.20;99.90;;;;;;5080717;28;20130;-77
2023/09/15 12:10:18;;;;;;;8.18;4.60;;;22.30;99.90;;;;;;5081106;28;20031;-75
2023/09/15 12:12:47;;;;;;;9.82;4.22;;;22.50;99.90;;;;;;5078689;28;20056;-75
2023/09/15 12:15:16;;;;;;;5.35;3.50;;;22.60;99.90;;;;;;5080822;28;20024;-78
2023/09/15 12:17:44;;;;;;;8.10;3.75;;;22.70;99.90;;;;;;5081562;28;20044;-78
2023/09/15 12:20:10;;;;;;;8.63;4.88;;;22.80;99.90;;;;;;5079589;28;20025;-73
2023/09/15 12:22:40;;;;;;;8.65;4.10;;;22.90;99.90;;;;;;5082420;28;20019;-77
2023/09/15 12:25:10;;;;;;;9.15;3.85;;;23.00;99.90;;;;;;5079536;28;20036;-80
2023/09/15 12:27:39;;;;;;;7.38;3.85;;;23.00;99.90;;;;;;5080069;28;20044;-81
2023/09/15 12:30:05;;;;;;;6.88;3.60;;;23.10;99.90;;;;;;5077688;28;20413;-76
2023/09/15 12:32:32;;;;;;;8.02;3.78;;;23.20;99.90;;;;;;5076041;28;20024;-75
2023/09/15 12:34:59;;;;;;;6.63;4.30;;;23.30;99.90;;;;;;5075448;28;20140;-81
2023/09/15 12:37:29;;;;;;;7.97;4.53;;;23.40;99.90;;;;;;5079688;28;20048;-75
2023/09/15 12:39:55;;;;;;;8.07;4.20;;;23.50;99.90;;;;;;5075936;28;20040;-73